createdAt,value
2018-10-21T00:00:30.808Z,23.80
2018-10-21T00:02:59.844Z,21.35
2018-10-21T00:05:28.075Z,20.08
2018-10-21T00:07:56.630Z,13.68
2018-10-21T00:10:24.965Z,12.93
2018-10-21T00:12:53.217Z,14.33
2018-10-21T00:15:54.951Z,16.73
2018-10-21T00:18:23.273Z,16.15
2018-10-21T00:20:51.577Z,16.73
2018-10-21T00:23:19.843Z,15.60
2018-10-21T00:25:48.595Z,19.65
2018-10-21T00:28:45.538Z,16.00
2018-10-21T00:31:20.278Z,15.93
2018-10-21T00:33:49.873Z,19.95
2018-10-21T00:36:23.989Z,18.80
2018-10-21T00:38:55.690Z,21.10
2018-10-21T00:41:27.326Z,19.23
2018-10-21T00:43:59.947Z,19.12
2018-10-21T00:46:31.694Z,17.17
2018-10-21T00:49:06.937Z,18.77
2018-10-21T00:51:37.139Z,26.40
2018-10-21T00:54:13.327Z,21.65
2018-10-21T00:56:48.654Z,13.22
2018-10-21T00:59:21.528Z,14.38
2018-10-21T01:01:54.273Z,16.02
2018-10-21T01:04:24.482Z,14.65
2018-10-21T01:07:04.484Z,16.15
2018-10-21T01:09:36.795Z,21.70
2018-10-21T01:12:09.251Z,19.82
2018-10-21T01:14:42.348Z,23.62
2018-10-21T01:17:10.638Z,20.30
2018-10-21T01:19:38.909Z,19.35
2018-10-21T01:22:07.172Z,17.92
2018-10-21T01:24:35.447Z,16.90
2018-10-21T01:27:07.640Z,19.62
2018-10-21T01:29:35.856Z,20.37
2018-10-21T01:32:04.254Z,23.35
2018-10-21T01:34:32.516Z,19.70
2018-10-21T01:37:00.857Z,21.15
2018-10-21T01:39:39.300Z,17.95
2018-10-21T01:42:07.575Z,22.32
2018-10-21T01:44:35.824Z,21.75
2018-10-21T01:47:04.213Z,19.42
2018-10-21T01:49:32.562Z,19.00
2018-10-21T01:52:00.838Z,21.07
2018-10-21T01:54:29.121Z,18.23
2018-10-21T01:56:57.423Z,17.02
2018-10-21T01:59:25.650Z,18.05
2018-10-21T02:01:53.930Z,20.30
2018-10-21T02:04:22.198Z,19.77
2018-10-21T02:06:50.486Z,18.17
2018-10-21T02:09:18.730Z,15.98
2018-10-21T02:11:47.015Z,16.25
2018-10-21T02:14:15.316Z,17.00
2018-10-21T02:16:43.519Z,16.45
2018-10-21T02:19:11.810Z,20.97
2018-10-21T02:21:40.056Z,16.90
2018-10-21T02:24:08.316Z,20.45
2018-10-21T02:26:36.729Z,20.35
2018-10-21T02:29:05.362Z,15.25
2018-10-21T02:31:33.629Z,19.75
2018-10-21T02:34:01.905Z,16.15
2018-10-21T02:36:30.180Z,16.70
2018-10-21T02:38:58.509Z,15.90
2018-10-21T02:41:43.216Z,17.90
2018-10-21T02:44:13.029Z,15.93
2018-10-21T02:46:41.902Z,17.48
2018-10-21T02:49:10.882Z,21.62
2018-10-21T02:51:39.250Z,31.17
2018-10-21T02:54:08.331Z,22.42
2018-10-21T02:56:36.886Z,22.22
2018-10-21T02:59:06.444Z,17.55
2018-10-21T03:01:34.814Z,21.25
2018-10-21T03:04:03.139Z,19.95
2018-10-21T03:06:31.685Z,20.60
2018-10-21T03:09:00.030Z,17.75
2018-10-21T03:11:28.264Z,20.52
2018-10-21T03:13:56.529Z,19.57
2018-10-21T03:16:24.817Z,21.30
2018-10-21T03:18:53.090Z,16.70
2018-10-21T03:21:21.525Z,16.93
2018-10-21T03:23:50.151Z,19.98
2018-10-21T03:26:18.445Z,14.18
2018-10-21T03:28:46.801Z,13.93
2018-10-21T03:31:15.067Z,17.27
2018-10-21T03:33:43.631Z,19.92
2018-10-21T03:36:11.785Z,15.50
2018-10-21T03:38:40.049Z,14.05
2018-10-21T03:41:08.356Z,17.67
2018-10-21T03:43:36.613Z,17.00
2018-10-21T03:46:05.118Z,20.25
2018-10-21T03:48:33.365Z,18.20
2018-10-21T03:51:01.998Z,19.77
2018-10-21T03:53:30.273Z,20.30
2018-10-21T03:55:58.547Z,24.05
2018-10-21T03:58:26.823Z,21.42
2018-10-21T04:00:55.099Z,25.60
2018-10-21T04:03:23.398Z,20.50
2018-10-21T04:05:51.677Z,24.57
2018-10-21T04:08:19.963Z,19.42
2018-10-21T04:10:48.294Z,24.18
2018-10-21T04:13:16.628Z,22.93
2018-10-21T04:15:44.893Z,26.68
2018-10-21T04:18:13.140Z,18.87
2018-10-21T04:20:41.644Z,24.75
2018-10-21T04:23:09.894Z,27.93
2018-10-21T04:25:38.942Z,22.67
2018-10-21T04:28:07.921Z,25.77
2018-10-21T04:30:38.394Z,20.05
2018-10-21T04:33:12.123Z,25.92
2018-10-21T04:35:40.424Z,25.10
2018-10-21T04:38:28.307Z,24.37
2018-10-21T04:40:56.577Z,21.40
2018-10-21T04:43:24.848Z,25.72
2018-10-21T04:45:53.144Z,23.15
2018-10-21T04:48:21.585Z,23.40
2018-10-21T04:50:49.895Z,23.42
2018-10-21T04:53:18.164Z,21.37
2018-10-21T04:55:46.449Z,19.02
2018-10-21T04:58:14.854Z,19.67
2018-10-21T05:00:43.233Z,21.12
2018-10-21T05:03:11.454Z,16.97
2018-10-21T05:05:39.715Z,17.70
2018-10-21T05:08:07.977Z,21.23
2018-10-21T05:10:37.493Z,35.03
2018-10-21T05:13:06.633Z,22.05
2018-10-21T05:15:36.175Z,25.17
2018-10-21T05:18:04.618Z,23.67
2018-10-21T05:20:32.994Z,23.00
2018-10-21T05:23:01.342Z,26.55
2018-10-21T05:25:29.970Z,19.45
2018-10-21T05:27:58.247Z,22.98
2018-10-21T05:30:26.497Z,20.43
2018-10-21T05:32:54.785Z,24.20
2018-10-21T05:35:23.050Z,27.40
2018-10-21T05:37:51.316Z,23.50
2018-10-21T05:40:20.949Z,26.02
2018-10-21T05:42:49.716Z,21.30
2018-10-21T05:45:18.012Z,33.40
2018-10-21T05:47:46.352Z,25.95
2018-10-21T05:50:15.568Z,22.15
2018-10-21T05:52:44.224Z,22.77
2018-10-21T05:55:13.384Z,19.17
2018-10-21T05:57:41.875Z,18.05
2018-10-21T06:00:14.706Z,21.15
2018-10-21T06:02:43.202Z,31.50
2018-10-21T06:05:22.965Z,26.33
2018-10-21T06:07:51.285Z,23.55
2018-10-21T06:10:19.734Z,23.65
2018-10-21T06:12:48.029Z,20.17
2018-10-21T06:15:16.372Z,25.85
2018-10-21T06:17:44.652Z,23.47
2018-10-21T06:20:23.698Z,23.70
2018-10-21T06:22:52.977Z,26.73
2018-10-21T06:25:21.297Z,24.57
2018-10-21T06:27:49.722Z,18.85
2018-10-21T06:30:17.972Z,18.35
2018-10-21T06:32:46.306Z,16.93
2018-10-21T06:35:14.583Z,19.65
2018-10-21T06:37:42.865Z,22.95
2018-10-21T06:40:12.177Z,17.32
2018-10-21T06:42:40.583Z,18.90
2018-10-21T06:45:10.171Z,16.80
2018-10-21T06:47:38.463Z,16.17
2018-10-21T06:50:09.663Z,15.75
2018-10-21T06:52:38.049Z,18.95
2018-10-21T06:55:06.577Z,15.48
2018-10-21T06:57:34.880Z,15.28
2018-10-21T07:00:03.321Z,15.30
2018-10-21T07:02:31.695Z,15.40
2018-10-21T07:05:00.075Z,13.62
2018-10-21T07:07:28.397Z,14.83
2018-10-21T07:09:56.834Z,15.40
2018-10-21T07:12:25.112Z,16.77
2018-10-21T07:14:53.478Z,15.67
2018-10-21T07:17:21.891Z,18.10
2018-10-21T07:19:50.602Z,13.27
2018-10-21T07:22:18.906Z,17.30
2018-10-21T07:24:47.318Z,13.97
2018-10-21T07:27:17.184Z,12.23
2018-10-21T07:29:45.522Z,14.33
2018-10-21T07:32:14.027Z,17.93
2018-10-21T07:34:42.640Z,16.10
2018-10-21T07:37:11.060Z,17.63
2018-10-21T07:39:39.451Z,15.17
2018-10-21T07:42:07.994Z,14.40
2018-10-21T07:44:36.448Z,13.70
2018-10-21T07:47:04.944Z,14.47
2018-10-21T07:49:33.262Z,15.30
2018-10-21T07:52:02.013Z,16.67
2018-10-21T07:54:30.278Z,16.23
2018-10-21T07:56:59.410Z,13.90
2018-10-21T07:59:28.001Z,16.30
2018-10-21T08:01:56.546Z,18.43
2018-10-21T08:04:25.606Z,17.37
2018-10-21T08:07:05.620Z,19.00
2018-10-21T08:09:33.982Z,16.40
2018-10-21T08:12:02.462Z,14.47
2018-10-21T08:14:30.934Z,14.83
2018-10-21T08:16:59.182Z,15.93
2018-10-21T08:19:27.490Z,17.63
2018-10-21T08:21:56.939Z,17.10
2018-10-21T08:24:25.750Z,14.53
2018-10-21T08:26:54.223Z,15.73
2018-10-21T08:29:22.700Z,14.70
2018-10-21T08:31:50.970Z,17.70
2018-10-21T08:34:19.329Z,15.27
2018-10-21T08:36:47.652Z,13.83
2018-10-21T08:39:16.554Z,15.50
2018-10-21T08:41:45.158Z,14.23
2018-10-21T08:44:13.679Z,21.23
2018-10-21T08:46:42.143Z,15.77
2018-10-21T08:49:10.956Z,14.80
2018-10-21T08:51:39.281Z,14.27
2018-10-21T08:54:08.076Z,14.10
2018-10-21T08:56:36.662Z,19.43
2018-10-21T08:59:05.299Z,18.03
2018-10-21T09:01:33.709Z,17.63
2018-10-21T09:04:02.220Z,14.10
2018-10-21T09:06:30.783Z,17.50
2018-10-21T09:08:59.169Z,14.03
2018-10-21T09:11:28.114Z,16.40
2018-10-21T09:13:56.441Z,17.73
2018-10-21T09:16:29.630Z,18.07
2018-10-21T09:18:58.055Z,13.13
2018-10-21T09:21:26.356Z,13.73
2018-10-21T09:23:54.783Z,16.07
2018-10-21T09:26:27.357Z,14.23
2018-10-21T09:28:55.752Z,12.33
2018-10-21T09:31:25.170Z,15.23
2018-10-21T09:33:53.676Z,16.93
2018-10-21T09:36:22.278Z,12.33
2018-10-21T09:38:50.934Z,15.00
2018-10-21T09:41:19.222Z,13.67
2018-10-21T09:43:47.734Z,17.30
2018-10-21T09:46:17.298Z,14.37
2018-10-21T09:48:46.036Z,17.30
2018-10-21T09:51:14.622Z,12.67
2018-10-21T09:53:43.058Z,12.40
2018-10-21T09:56:11.322Z,13.53
2018-10-21T09:58:39.998Z,13.33
2018-10-21T10:01:13.762Z,11.13
2018-10-21T10:03:42.192Z,13.10
2018-10-21T10:06:10.564Z,14.83
2018-10-21T10:08:41.168Z,11.53
2018-10-21T10:11:09.836Z,13.87
2018-10-21T10:13:38.480Z,11.17
2018-10-21T10:16:06.883Z,10.53
2018-10-21T10:18:36.380Z,10.40
2018-10-21T10:21:05.090Z,12.80
2018-10-21T10:23:33.606Z,9.53
2018-10-21T10:26:01.850Z,11.73
2018-10-21T10:28:30.365Z,11.57
2018-10-21T10:30:58.703Z,12.70
2018-10-21T10:33:26.988Z,9.03
2018-10-21T10:35:55.537Z,11.03
2018-10-21T10:38:23.897Z,11.20
2018-10-21T10:40:52.599Z,10.20
2018-10-21T10:43:23.459Z,9.20
2018-10-21T10:45:51.957Z,10.90
2018-10-21T10:48:20.849Z,8.20
2018-10-21T10:50:50.464Z,9.90
2018-10-21T10:53:19.716Z,9.20
2018-10-21T10:55:52.273Z,9.77
2018-10-21T10:58:22.533Z,9.90
2018-10-21T11:00:50.983Z,8.10
2018-10-21T11:03:20.267Z,9.57
2018-10-21T11:05:48.975Z,9.10
2018-10-21T11:08:17.327Z,9.20
2018-10-21T11:10:45.698Z,6.47
2018-10-21T11:13:14.701Z,6.13
2018-10-21T11:15:43.164Z,10.77
2018-10-21T11:18:11.642Z,8.90
2018-10-21T11:20:40.450Z,7.83
2018-10-21T11:23:08.824Z,7.00
2018-10-21T11:25:38.048Z,8.77
2018-10-21T11:28:07.167Z,12.57
2018-10-21T11:30:35.787Z,7.90
2018-10-21T11:33:05.856Z,8.23
2018-10-21T11:35:34.129Z,9.57
2018-10-21T11:38:02.498Z,9.00
2018-10-21T11:40:30.922Z,7.87
2018-10-21T11:42:59.258Z,9.90
2018-10-21T11:45:27.534Z,11.80
2018-10-21T11:47:58.082Z,10.43
2018-10-21T11:50:26.395Z,9.10
2018-10-21T11:52:54.701Z,11.93
2018-10-21T11:55:23.113Z,6.50
2018-10-21T11:57:51.421Z,6.37
2018-10-21T12:00:19.882Z,5.80
2018-10-21T12:02:48.220Z,5.33
2018-10-21T12:05:16.503Z,8.63
2018-10-21T12:07:44.928Z,4.93
2018-10-21T12:10:13.398Z,7.33
2018-10-21T12:12:41.683Z,4.57
2018-10-21T12:15:11.146Z,5.23
2018-10-21T12:17:41.328Z,6.20
2018-10-21T12:20:09.842Z,8.30
2018-10-21T12:22:38.856Z,8.20
2018-10-21T12:25:07.250Z,5.27
2018-10-21T12:27:36.093Z,6.23
2018-10-21T12:30:05.773Z,8.07
2018-10-21T12:32:34.126Z,8.27
2018-10-21T12:35:02.515Z,6.10
2018-10-21T12:37:30.902Z,4.40
2018-10-21T12:39:59.522Z,8.10
2018-10-21T12:42:28.181Z,6.00
2018-10-21T12:44:56.528Z,4.50
2018-10-21T12:47:24.896Z,8.90
2018-10-21T12:49:53.182Z,5.90
2018-10-21T12:52:21.554Z,9.83
2018-10-21T12:54:51.297Z,7.00
2018-10-21T12:57:20.494Z,8.27
2018-10-21T12:59:48.819Z,8.93
2018-10-21T13:02:17.291Z,5.33
2018-10-21T13:04:45.669Z,7.30
2018-10-21T13:07:13.991Z,5.77
2018-10-21T13:09:42.406Z,7.40
2018-10-21T13:12:10.739Z,6.27
2018-10-21T13:14:39.081Z,8.17
2018-10-21T13:17:07.368Z,8.80
2018-10-21T13:19:35.786Z,6.07
2018-10-21T13:22:04.101Z,12.80
2018-10-21T13:24:32.368Z,5.23
2018-10-21T13:27:00.736Z,11.03
2018-10-21T13:29:29.043Z,6.73
2018-10-21T13:31:57.311Z,7.27
2018-10-21T13:34:25.624Z,8.93
2018-10-21T13:36:53.881Z,7.03
2018-10-21T13:39:22.223Z,5.00
2018-10-21T13:41:50.526Z,4.43
2018-10-21T13:44:18.886Z,8.27
2018-10-21T13:46:47.216Z,5.90
2018-10-21T13:49:15.763Z,8.40
2018-10-21T13:51:44.076Z,7.83
2018-10-21T13:54:12.389Z,9.00
2018-10-21T13:56:40.728Z,6.73
2018-10-21T13:59:09.576Z,8.80
2018-10-21T14:01:37.830Z,7.20
2018-10-21T14:04:06.114Z,6.47
2018-10-21T14:06:34.465Z,8.37
2018-10-21T14:09:03.030Z,12.43
2018-10-21T14:11:31.279Z,7.00
2018-10-21T14:13:59.619Z,7.23
2018-10-21T14:16:28.028Z,7.37
2018-10-21T14:18:56.160Z,5.93
2018-10-21T14:21:24.411Z,6.47
2018-10-21T14:23:52.846Z,7.40
2018-10-21T14:26:21.432Z,8.97
2018-10-21T14:28:50.682Z,7.87
2018-10-21T14:31:19.041Z,7.17
2018-10-21T14:33:47.365Z,7.63
2018-10-21T14:36:15.720Z,9.83
2018-10-21T14:38:43.941Z,5.43
2018-10-21T14:41:12.248Z,5.40
2018-10-21T14:43:40.546Z,8.00
2018-10-21T14:46:08.906Z,4.43
2018-10-21T14:48:37.140Z,6.10
2018-10-21T14:51:05.487Z,5.63
2018-10-21T14:53:33.972Z,5.87
2018-10-21T14:56:02.397Z,8.93
2018-10-21T14:58:30.990Z,4.33
2018-10-21T15:00:59.254Z,4.10
2018-10-21T15:03:27.618Z,3.67
2018-10-21T15:05:55.940Z,5.80
2018-10-21T15:08:24.218Z,6.97
2018-10-21T15:10:52.522Z,5.93
2018-10-21T15:13:20.713Z,4.63
2018-10-21T15:15:49.024Z,9.47
2018-10-21T15:18:17.469Z,6.63
2018-10-21T15:20:45.623Z,7.30
2018-10-21T15:23:13.995Z,6.13
2018-10-21T15:25:42.740Z,3.47
2018-10-21T15:28:11.080Z,7.83
2018-10-21T15:30:39.306Z,4.60
2018-10-21T15:33:07.729Z,6.73
2018-10-21T15:35:36.514Z,7.37
2018-10-21T15:38:05.076Z,4.73
2018-10-21T15:40:33.426Z,6.57
2018-10-21T15:43:01.694Z,5.03
2018-10-21T15:45:29.974Z,6.27
2018-10-21T15:47:58.401Z,8.10
2018-10-21T15:50:26.739Z,3.57
2018-10-21T15:52:55.098Z,8.60
2018-10-21T15:55:23.434Z,4.77
2018-10-21T15:57:51.817Z,8.00
2018-10-21T16:00:20.148Z,5.50
2018-10-21T16:02:48.606Z,8.67
2018-10-21T16:05:17.206Z,3.77
2018-10-21T16:07:45.571Z,5.07
2018-10-21T16:10:13.970Z,7.70
2018-10-21T16:12:42.190Z,6.43
2018-10-21T16:15:13.088Z,5.43
2018-10-21T16:17:42.334Z,3.93
2018-10-21T16:20:10.699Z,3.67
2018-10-21T16:22:40.264Z,5.60
2018-10-21T16:25:14.674Z,5.60
2018-10-21T16:27:43.177Z,8.00
2018-10-21T16:30:13.518Z,4.63
2018-10-21T16:32:42.721Z,3.17
2018-10-21T16:35:11.568Z,4.97
2018-10-21T16:37:40.431Z,5.73
2018-10-21T16:40:11.296Z,5.00
2018-10-21T16:42:40.064Z,9.20
2018-10-21T16:45:09.092Z,8.97
2018-10-21T16:47:38.022Z,5.87
2018-10-21T16:50:08.626Z,10.37
2018-10-21T16:52:37.116Z,6.43
2018-10-21T16:55:06.822Z,4.93
2018-10-21T16:57:35.336Z,3.53
2018-10-21T17:00:03.924Z,5.23
2018-10-21T17:02:32.230Z,2.70
2018-10-21T17:05:00.532Z,6.13
2018-10-21T17:07:28.774Z,4.63
2018-10-21T17:09:57.420Z,5.10
2018-10-21T17:12:25.321Z,4.30
2018-10-21T17:14:53.682Z,5.30
2018-10-21T17:17:21.961Z,6.13
2018-10-21T17:19:50.398Z,4.30
2018-10-21T17:22:18.812Z,7.50
2018-10-21T17:24:47.651Z,5.87
2018-10-21T17:27:16.121Z,8.13
2018-10-21T17:29:44.496Z,7.67
2018-10-21T17:32:13.066Z,3.67
2018-10-21T17:34:41.382Z,4.03
2018-10-21T17:37:09.792Z,5.10
2018-10-21T17:39:38.034Z,4.20
2018-10-21T17:42:06.751Z,5.87
2018-10-21T17:44:35.044Z,5.43
2018-10-21T17:47:03.377Z,3.27
2018-10-21T17:49:31.754Z,3.10
2018-10-21T17:52:00.330Z,3.50
2018-10-21T17:54:28.572Z,3.93
2018-10-21T17:56:57.223Z,4.70
2018-10-21T17:59:25.572Z,6.33
2018-10-21T18:01:54.210Z,5.90
2018-10-21T18:04:22.483Z,3.10
2018-10-21T18:06:50.850Z,7.90
2018-10-21T18:09:19.065Z,6.53
2018-10-21T18:11:47.441Z,9.00
2018-10-21T18:14:15.745Z,4.97
2018-10-21T18:16:44.085Z,5.43
2018-10-21T18:19:12.610Z,4.43
2018-10-21T18:21:40.892Z,6.10
2018-10-21T18:24:09.186Z,4.77
2018-10-21T18:26:37.491Z,4.33
2018-10-21T18:29:06.526Z,6.57
2018-10-21T18:31:34.856Z,5.17
2018-10-21T18:34:03.197Z,6.50
2018-10-21T18:36:31.472Z,9.27
2018-10-21T18:38:59.791Z,4.83
2018-10-21T18:41:28.082Z,5.80
2018-10-21T18:43:56.446Z,9.63
2018-10-21T18:46:24.903Z,4.83
2018-10-21T18:48:53.170Z,4.43
2018-10-21T18:51:21.458Z,3.50
2018-10-21T18:53:49.784Z,5.00
2018-10-21T18:56:18.059Z,8.40
2018-10-21T18:58:46.350Z,6.00
2018-10-21T19:01:14.651Z,8.07
2018-10-21T19:03:42.972Z,7.40
2018-10-21T19:06:11.444Z,7.40
2018-10-21T19:08:39.754Z,26.73
2018-10-21T19:11:08.251Z,93.57
2018-10-21T19:13:36.606Z,48.60
2018-10-21T19:16:05.272Z,13.40
2018-10-21T19:18:41.048Z,6.13
2018-10-21T19:21:09.548Z,6.10
2018-10-21T19:23:37.912Z,7.30
2018-10-21T19:26:06.578Z,5.83
2018-10-21T19:28:34.898Z,15.00
2018-10-21T19:31:03.321Z,34.97
2018-10-21T19:33:31.608Z,36.70
2018-10-21T19:36:00.004Z,81.67
2018-10-21T19:38:28.357Z,74.33
2018-10-21T19:40:57.848Z,92.70
2018-10-21T19:43:26.253Z,68.87
2018-10-21T19:45:55.172Z,41.07
2018-10-21T19:48:30.633Z,12.50
2018-10-21T19:51:05.522Z,7.53
2018-10-21T19:53:34.538Z,16.67
2018-10-21T19:56:03.026Z,51.73
2018-10-21T19:58:31.372Z,15.77
2018-10-21T20:00:59.660Z,14.47
2018-10-21T20:03:27.886Z,8.08
2018-10-21T20:05:56.178Z,9.57
2018-10-21T20:08:24.667Z,6.07
2018-10-21T20:10:53.067Z,8.73
2018-10-21T20:13:21.371Z,5.67
2018-10-21T20:15:49.751Z,6.87
2018-10-21T20:18:19.116Z,12.00
2018-10-21T20:20:49.413Z,8.90
2018-10-21T20:23:17.986Z,9.07
2018-10-21T20:25:46.654Z,14.67
2018-10-21T20:28:15.100Z,7.80
2018-10-21T20:30:43.816Z,8.87
2018-10-21T20:33:12.261Z,9.28
2018-10-21T20:35:40.503Z,11.85
2018-10-21T20:38:10.038Z,10.15
2018-10-21T20:40:38.671Z,9.90
2018-10-21T20:43:07.068Z,9.35
2018-10-21T20:45:35.587Z,8.80
2018-10-21T20:48:03.934Z,8.50
2018-10-21T20:50:32.292Z,8.90
2018-10-21T20:53:00.626Z,9.50
2018-10-21T20:55:29.146Z,12.28
2018-10-21T20:57:57.840Z,10.63
2018-10-21T21:00:26.132Z,13.00
2018-10-21T21:02:54.438Z,10.15
2018-10-21T21:05:22.762Z,12.18
2018-10-21T21:07:51.821Z,11.63
2018-10-21T21:10:20.446Z,10.20
2018-10-21T21:12:52.714Z,8.28
2018-10-21T21:15:21.731Z,9.73
2018-10-21T21:17:50.032Z,10.05
2018-10-21T21:20:18.687Z,9.18
2018-10-21T21:22:46.986Z,10.80
2018-10-21T21:25:16.540Z,9.50
2018-10-21T21:27:44.848Z,10.43
2018-10-21T21:30:13.288Z,11.85
2018-10-21T21:32:41.818Z,10.38
2018-10-21T21:35:10.218Z,8.73
2018-10-21T21:37:38.994Z,6.78
2018-10-21T21:40:09.336Z,8.38
2018-10-21T21:42:38.578Z,8.88
2018-10-21T21:45:07.294Z,9.40
2018-10-21T21:47:35.923Z,9.78
2018-10-21T21:50:10.200Z,8.00
2018-10-21T21:52:38.508Z,17.67
2018-10-21T21:55:07.113Z,8.15
2018-10-21T21:57:35.478Z,8.83
2018-10-21T22:00:04.895Z,13.65
2018-10-21T22:02:33.138Z,10.58
2018-10-21T22:05:01.858Z,12.75
2018-10-21T22:07:30.133Z,7.75
2018-10-21T22:09:58.658Z,8.53
2018-10-21T22:12:27.285Z,7.97
2018-10-21T22:14:55.737Z,10.40
2018-10-21T22:17:24.123Z,8.58
2018-10-21T22:19:52.490Z,10.40
2018-10-21T22:22:20.823Z,9.30
2018-10-21T22:24:49.433Z,10.28
2018-10-21T22:27:17.730Z,9.05
2018-10-21T22:29:46.311Z,11.08
2018-10-21T22:32:14.858Z,12.15
2018-10-21T22:34:43.125Z,9.58
2018-10-21T22:37:11.401Z,9.55
2018-10-21T22:39:40.054Z,10.93
2018-10-21T22:42:08.395Z,7.90
2018-10-21T22:44:36.649Z,7.75
2018-10-21T22:47:05.211Z,7.83
2018-10-21T22:49:33.657Z,7.67
2018-10-21T22:52:02.300Z,6.50
2018-10-21T22:54:30.594Z,7.05
2018-10-21T22:56:58.922Z,9.60
2018-10-21T22:59:27.212Z,8.48
2018-10-21T23:01:55.723Z,9.90
2018-10-21T23:04:24.027Z,9.80
2018-10-21T23:06:52.276Z,9.03
2018-10-21T23:09:20.610Z,12.75
2018-10-21T23:11:49.099Z,11.18
2018-10-21T23:14:17.221Z,9.43
2018-10-21T23:16:45.668Z,7.45
2018-10-21T23:19:40.474Z,11.95
2018-10-21T23:22:08.844Z,8.40
2018-10-21T23:24:37.848Z,12.37
2018-10-21T23:27:06.444Z,8.48
2018-10-21T23:29:34.850Z,10.48
2018-10-21T23:32:03.198Z,9.13
2018-10-21T23:34:31.624Z,8.50
2018-10-21T23:36:59.960Z,10.25
2018-10-21T23:39:28.862Z,8.60
2018-10-21T23:41:57.741Z,11.30
2018-10-21T23:44:26.035Z,7.90
2018-10-21T23:46:54.427Z,14.55
2018-10-21T23:49:22.699Z,8.63
2018-10-21T23:51:50.969Z,8.00
2018-10-21T23:54:19.241Z,11.83
2018-10-21T23:56:47.527Z,9.18
2018-10-21T23:59:15.816Z,7.92
